sensor_id;sensor_type;location;lat;lon;timestamp;temperature;humidity
25346;DHT22;13300;51.032;3.710;2022-11-21T00:00:15;8.10;99.90
25346;DHT22;13300;51.032;3.710;2022-11-21T00:02:41;8.10;99.90
25346;DHT22;13300;51.032;3.710;2022-11-21T00:05:07;8.00;99.90
25346;DHT22;13300;51.032;3.710;2022-11-21T00:07:32;8.00;99.90
25346;DHT22;13300;51.032;3.710;2022-11-21T00:09:58;8.00;99.90
25346;DHT22;13300;51.032;3.710;2022-11-21T00:12:23;8.10;99.90
25346;DHT22;13300;51.032;3.710;2022-11-21T00:14:49;8.00;99.90
25346;DHT22;13300;51.032;3.710;2022-11-21T00:17:15;8.10;99.90
25346;DHT22;13300;51.032;3.710;2022-11-21T00:19:40;8.20;99.90
25346;DHT22;13300;51.032;3.710;2022-11-21T00:22:06;8.30;99.90
25346;DHT22;13300;51.032;3.710;2022-11-21T00:24:31;8.20;99.90
25346;DHT22;13300;51.032;3.710;2022-11-21T00:26:57;8.20;99.90
25346;DHT22;13300;51.032;3.710;2022-11-21T00:29:26;8.10;99.90
25346;DHT22;13300;51.032;3.710;2022-11-21T00:31:52;8.20;99.90
25346;DHT22;13300;51.032;3.710;2022-11-21T00:34:17;8.30;99.90
25346;DHT22;13300;51.032;3.710;2022-11-21T00:36:43;8.20;99.90
25346;DHT22;13300;51.032;3.710;2022-11-21T00:39:08;8.30;99.90
25346;DHT22;13300;51.032;3.710;2022-11-21T00:41:34;8.40;99.90
25346;DHT22;13300;51.032;3.710;2022-11-21T00:43:59;8.30;99.90
25346;DHT22;13300;51.032;3.710;2022-11-21T00:46:25;8.30;99.90
25346;DHT22;13300;51.032;3.710;2022-11-21T00:48:51;8.40;99.90
25346;DHT22;13300;51.032;3.710;2022-11-21T00:51:16;8.40;99.90
25346;DHT22;13300;51.032;3.710;2022-11-21T00:53:42;8.40;99.90
25346;DHT22;13300;51.032;3.710;2022-11-21T00:56:07;8.40;99.90
25346;DHT22;13300;51.032;3.710;2022-11-21T00:58:33;8.40;99.90
25346;DHT22;13300;51.032;3.710;2022-11-21T01:01:06;8.40;99.90
25346;DHT22;13300;51.032;3.710;2022-11-21T01:03:32;8.30;99.90
25346;DHT22;13300;51.032;3.710;2022-11-21T01:06:05;8.30;99.90
25346;DHT22;13300;51.032;3.710;2022-11-21T01:08:31;8.20;99.90
25346;DHT22;13300;51.032;3.710;2022-11-21T01:11:01;8.10;99.90
25346;DHT22;13300;51.032;3.710;2022-11-21T01:13:26;7.90;99.90
25346;DHT22;13300;51.032;3.710;2022-11-21T01:15:52;7.80;99.90
25346;DHT22;13300;51.032;3.710;2022-11-21T01:18:17;7.80;99.90
25346;DHT22;13300;51.032;3.710;2022-11-21T01:20:43;7.70;99.90
25346;DHT22;13300;51.032;3.710;2022-11-21T01:23:09;7.70;99.90
25346;DHT22;13300;51.032;3.710;2022-11-21T01:25:35;7.60;99.90
25346;DHT22;13300;51.032;3.710;2022-11-21T01:28:00;7.50;99.90
25346;DHT22;13300;51.032;3.710;2022-11-21T01:30:26;7.40;99.90
25346;DHT22;13300;51.032;3.710;2022-11-21T01:32:52;7.40;99.90
25346;DHT22;13300;51.032;3.710;2022-11-21T01:35:17;7.40;99.90
25346;DHT22;13300;51.032;3.710;2022-11-21T01:37:46;7.40;99.90
25346;DHT22;13300;51.032;3.710;2022-11-21T01:40:13;7.30;99.90
25346;DHT22;13300;51.032;3.710;2022-11-21T01:42:51;7.30;99.90
25346;DHT22;13300;51.032;3.710;2022-11-21T01:48:02;7.40;99.90
25346;DHT22;13300;51.032;3.710;2022-11-21T01:50:27;7.50;99.90
25346;DHT22;13300;51.032;3.710;2022-11-21T01:52:53;7.60;99.90
25346;DHT22;13300;51.032;3.710;2022-11-21T01:55:19;7.70;99.90
25346;DHT22;13300;51.032;3.710;2022-11-21T01:57:44;7.80;99.90
25346;DHT22;13300;51.032;3.710;2022-11-21T02:02:47;8.00;99.90
25346;DHT22;13300;51.032;3.710;2022-11-21T02:05:18;8.00;99.90
25346;DHT22;13300;51.032;3.710;2022-11-21T02:07:45;7.90;99.90
25346;DHT22;13300;51.032;3.710;2022-11-21T02:10:11;7.90;99.90
25346;DHT22;13300;51.032;3.710;2022-11-21T02:12:39;7.90;99.90
25346;DHT22;13300;51.032;3.710;2022-11-21T02:15:05;8.00;99.90
25346;DHT22;13300;51.032;3.710;2022-11-21T02:17:31;8.00;99.90
25346;DHT22;13300;51.032;3.710;2022-11-21T02:20:07;8.00;99.90
25346;DHT22;13300;51.032;3.710;2022-11-21T02:25:18;8.10;99.90
25346;DHT22;13300;51.032;3.710;2022-11-21T02:27:45;8.20;99.90
25346;DHT22;13300;51.032;3.710;2022-11-21T02:30:13;8.20;99.90
25346;DHT22;13300;51.032;3.710;2022-11-21T02:32:40;8.20;99.90
25346;DHT22;13300;51.032;3.710;2022-11-21T02:35:07;8.30;99.90
25346;DHT22;13300;51.032;3.710;2022-11-21T02:37:32;8.30;99.90
25346;DHT22;13300;51.032;3.710;2022-11-21T02:40:00;8.30;99.90
25346;DHT22;13300;51.032;3.710;2022-11-21T02:42:30;8.30;99.90
25346;DHT22;13300;51.032;3.710;2022-11-21T02:45:02;8.40;99.90
25346;DHT22;13300;51.032;3.710;2022-11-21T02:47:32;8.50;99.90
25346;DHT22;13300;51.032;3.710;2022-11-21T02:52:27;8.40;99.90
25346;DHT22;13300;51.032;3.710;2022-11-21T02:54:52;8.40;99.90
25346;DHT22;13300;51.032;3.710;2022-11-21T02:57:18;8.30;99.90
25346;DHT22;13300;51.032;3.710;2022-11-21T02:59:43;8.30;99.90
25346;DHT22;13300;51.032;3.710;2022-11-21T03:02:12;8.10;99.90
25346;DHT22;13300;51.032;3.710;2022-11-21T03:04:37;7.90;99.90
25346;DHT22;13300;51.032;3.710;2022-11-21T03:07:03;7.80;99.90
25346;DHT22;13300;51.032;3.710;2022-11-21T03:09:28;7.80;99.90
25346;DHT22;13300;51.032;3.710;2022-11-21T03:11:54;7.60;99.90
25346;DHT22;13300;51.032;3.710;2022-11-21T03:14:19;7.40;99.90
25346;DHT22;13300;51.032;3.710;2022-11-21T03:16:45;7.30;99.90
25346;DHT22;13300;51.032;3.710;2022-11-21T03:19:11;7.30;99.90
25346;DHT22;13300;51.032;3.710;2022-11-21T03:21:36;7.40;99.90
25346;DHT22;13300;51.032;3.710;2022-11-21T03:24:02;7.30;99.90
25346;DHT22;13300;51.032;3.710;2022-11-21T03:26:27;7.30;99.90
25346;DHT22;13300;51.032;3.710;2022-11-21T03:28:53;7.20;99.90
25346;DHT22;13300;51.032;3.710;2022-11-21T03:31:18;7.10;99.90
25346;DHT22;13300;51.032;3.710;2022-11-21T03:33:44;7.10;99.90
25346;DHT22;13300;51.032;3.710;2022-11-21T03:36:09;7.00;99.90
25346;DHT22;13300;51.032;3.710;2022-11-21T03:38:35;7.00;99.90
25346;DHT22;13300;51.032;3.710;2022-11-21T03:41:04;6.90;99.90
25346;DHT22;13300;51.032;3.710;2022-11-21T03:43:50;6.80;99.90
25346;DHT22;13300;51.032;3.710;2022-11-21T03:46:15;6.70;99.90
25346;DHT22;13300;51.032;3.710;2022-11-21T03:48:41;6.60;99.90
25346;DHT22;13300;51.032;3.710;2022-11-21T03:51:07;6.60;99.90
25346;DHT22;13300;51.032;3.710;2022-11-21T03:53:32;6.50;99.90
25346;DHT22;13300;51.032;3.710;2022-11-21T03:56:00;6.50;99.90
25346;DHT22;13300;51.032;3.710;2022-11-21T03:58:26;6.50;99.90
25346;DHT22;13300;51.032;3.710;2022-11-21T04:00:51;6.50;99.90
25346;DHT22;13300;51.032;3.710;2022-11-21T04:03:17;6.60;99.90
25346;DHT22;13300;51.032;3.710;2022-11-21T04:05:45;6.60;99.90
25346;DHT22;13300;51.032;3.710;2022-11-21T04:08:11;6.50;99.90
25346;DHT22;13300;51.032;3.710;2022-11-21T04:10:36;6.60;99.90
25346;DHT22;13300;51.032;3.710;2022-11-21T04:13:02;6.60;99.90
25346;DHT22;13300;51.032;3.710;2022-11-21T04:15:28;6.50;99.90
25346;DHT22;13300;51.032;3.710;2022-11-21T04:17:53;6.60;99.90
25346;DHT22;13300;51.032;3.710;2022-11-21T04:20:19;6.60;99.90
25346;DHT22;13300;51.032;3.710;2022-11-21T04:22:44;6.70;99.90
25346;DHT22;13300;51.032;3.710;2022-11-21T04:25:10;6.80;99.90
25346;DHT22;13300;51.032;3.710;2022-11-21T04:27:38;6.70;99.90
25346;DHT22;13300;51.032;3.710;2022-11-21T04:30:03;6.80;99.90
25346;DHT22;13300;51.032;3.710;2022-11-21T04:32:29;6.90;99.90
25346;DHT22;13300;51.032;3.710;2022-11-21T04:34:55;6.90;99.90
25346;DHT22;13300;51.032;3.710;2022-11-21T04:37:20;6.90;99.90
25346;DHT22;13300;51.032;3.710;2022-11-21T04:39:46;6.90;99.90
25346;DHT22;13300;51.032;3.710;2022-11-21T04:42:11;6.80;99.90
25346;DHT22;13300;51.032;3.710;2022-11-21T04:44:37;6.80;99.90
25346;DHT22;13300;51.032;3.710;2022-11-21T04:47:02;6.70;99.90
25346;DHT22;13300;51.032;3.710;2022-11-21T04:49:28;6.80;99.90
25346;DHT22;13300;51.032;3.710;2022-11-21T04:51:53;6.70;99.90
25346;DHT22;13300;51.032;3.710;2022-11-21T04:54:19;6.60;99.90
25346;DHT22;13300;51.032;3.710;2022-11-21T04:56:44;6.50;99.90
25346;DHT22;13300;51.032;3.710;2022-11-21T04:59:10;6.50;99.90
25346;DHT22;13300;51.032;3.710;2022-11-21T05:01:37;6.50;99.90
25346;DHT22;13300;51.032;3.710;2022-11-21T05:04:02;6.40;99.90
25346;DHT22;13300;51.032;3.710;2022-11-21T05:06:28;6.40;99.90
25346;DHT22;13300;51.032;3.710;2022-11-21T05:08:54;6.30;99.90
25346;DHT22;13300;51.032;3.710;2022-11-21T05:11:19;6.30;99.90
25346;DHT22;13300;51.032;3.710;2022-11-21T05:14:04;6.30;99.90
25346;DHT22;13300;51.032;3.710;2022-11-21T05:16:31;6.40;99.90
25346;DHT22;13300;51.032;3.710;2022-11-21T05:18:56;6.40;99.90
25346;DHT22;13300;51.032;3.710;2022-11-21T05:21:22;6.30;99.90
25346;DHT22;13300;51.032;3.710;2022-11-21T05:23:47;6.20;99.90
25346;DHT22;13300;51.032;3.710;2022-11-21T05:26:13;6.20;99.90
25346;DHT22;13300;51.032;3.710;2022-11-21T05:28:38;6.20;99.90
25346;DHT22;13300;51.032;3.710;2022-11-21T05:31:04;6.20;99.90
25346;DHT22;13300;51.032;3.710;2022-11-21T05:33:30;6.10;99.90
25346;DHT22;13300;51.032;3.710;2022-11-21T05:35:55;6.10;99.90
25346;DHT22;13300;51.032;3.710;2022-11-21T05:38:21;6.10;99.90
25346;DHT22;13300;51.032;3.710;2022-11-21T05:40:46;6.00;99.90
25346;DHT22;13300;51.032;3.710;2022-11-21T05:43:12;6.00;99.90
25346;DHT22;13300;51.032;3.710;2022-11-21T05:45:56;6.00;99.90
25346;DHT22;13300;51.032;3.710;2022-11-21T05:48:21;5.90;99.90
25346;DHT22;13300;51.032;3.710;2022-11-21T05:50:47;5.80;99.90
25346;DHT22;13300;51.032;3.710;2022-11-21T05:53:16;5.80;99.90
25346;DHT22;13300;51.032;3.710;2022-11-21T05:55:41;5.70;99.90
25346;DHT22;13300;51.032;3.710;2022-11-21T05:58:07;5.70;99.90
25346;DHT22;13300;51.032;3.710;2022-11-21T06:00:35;5.80;99.90
25346;DHT22;13300;51.032;3.710;2022-11-21T06:03:00;5.60;99.90
25346;DHT22;13300;51.032;3.710;2022-11-21T06:05:45;5.50;99.90
25346;DHT22;13300;51.032;3.710;2022-11-21T06:08:12;5.40;99.90
25346;DHT22;13300;51.032;3.710;2022-11-21T06:10:37;5.40;99.90
25346;DHT22;13300;51.032;3.710;2022-11-21T06:13:03;5.50;99.90
25346;DHT22;13300;51.032;3.710;2022-11-21T06:15:47;5.40;99.90
25346;DHT22;13300;51.032;3.710;2022-11-21T06:18:12;5.30;99.90
25346;DHT22;13300;51.032;3.710;2022-11-21T06:20:38;5.20;99.90
25346;DHT22;13300;51.032;3.710;2022-11-21T06:23:03;5.10;99.90
25346;DHT22;13300;51.032;3.710;2022-11-21T06:25:29;5.10;99.90
25346;DHT22;13300;51.032;3.710;2022-11-21T06:27:54;5.00;99.90
25346;DHT22;13300;51.032;3.710;2022-11-21T06:30:20;5.00;99.90
25346;DHT22;13300;51.032;3.710;2022-11-21T06:32:45;5.20;99.90
25346;DHT22;13300;51.032;3.710;2022-11-21T06:35:11;5.20;99.90
25346;DHT22;13300;51.032;3.710;2022-11-21T06:37:37;5.20;99.90
25346;DHT22;13300;51.032;3.710;2022-11-21T06:40:03;5.20;99.90
25346;DHT22;13300;51.032;3.710;2022-11-21T06:42:28;5.10;99.90
25346;DHT22;13300;51.032;3.710;2022-11-21T06:44:56;5.10;99.90
25346;DHT22;13300;51.032;3.710;2022-11-21T06:47:22;5.10;99.90
25346;DHT22;13300;51.032;3.710;2022-11-21T06:49:47;5.20;99.90
25346;DHT22;13300;51.032;3.710;2022-11-21T06:52:13;5.20;99.90
25346;DHT22;13300;51.032;3.710;2022-11-21T06:54:38;5.20;99.90
25346;DHT22;13300;51.032;3.710;2022-11-21T06:57:04;5.20;99.90
25346;DHT22;13300;51.032;3.710;2022-11-21T06:59:29;5.20;99.90
25346;DHT22;13300;51.032;3.710;2022-11-21T07:01:57;5.20;99.90
25346;DHT22;13300;51.032;3.710;2022-11-21T07:04:23;5.20;99.90
25346;DHT22;13300;51.032;3.710;2022-11-21T07:06:49;5.20;99.90
25346;DHT22;13300;51.032;3.710;2022-11-21T07:09:14;5.20;99.90
25346;DHT22;13300;51.032;3.710;2022-11-21T07:11:40;5.10;99.90
25346;DHT22;13300;51.032;3.710;2022-11-21T07:14:05;5.10;99.90
25346;DHT22;13300;51.032;3.710;2022-11-21T07:16:32;5.10;99.90
25346;DHT22;13300;51.032;3.710;2022-11-21T07:18:58;5.00;99.90
25346;DHT22;13300;51.032;3.710;2022-11-21T07:21:25;5.00;99.90
25346;DHT22;13300;51.032;3.710;2022-11-21T07:23:50;5.00;99.90
25346;DHT22;13300;51.032;3.710;2022-11-21T07:26:16;5.10;99.90
25346;DHT22;13300;51.032;3.710;2022-11-21T07:28:42;5.20;99.90
25346;DHT22;13300;51.032;3.710;2022-11-21T07:31:08;5.10;99.90
25346;DHT22;13300;51.032;3.710;2022-11-21T07:33:33;5.20;99.90
25346;DHT22;13300;51.032;3.710;2022-11-21T07:36:02;5.20;99.90
25346;DHT22;13300;51.032;3.710;2022-11-21T07:38:28;5.10;99.90
25346;DHT22;13300;51.032;3.710;2022-11-21T07:40:55;5.20;99.90
25346;DHT22;13300;51.032;3.710;2022-11-21T07:43:20;5.20;99.90
25346;DHT22;13300;51.032;3.710;2022-11-21T07:45:46;5.20;99.90
25346;DHT22;13300;51.032;3.710;2022-11-21T07:48:12;5.40;99.90
25346;DHT22;13300;51.032;3.710;2022-11-21T07:50:37;5.70;99.90
25346;DHT22;13300;51.032;3.710;2022-11-21T07:53:04;5.90;99.90
25346;DHT22;13300;51.032;3.710;2022-11-21T07:55:30;6.30;99.90
25346;DHT22;13300;51.032;3.710;2022-11-21T07:57:58;6.40;99.90
25346;DHT22;13300;51.032;3.710;2022-11-21T08:00:24;6.20;99.90
25346;DHT22;13300;51.032;3.710;2022-11-21T08:02:50;6.30;99.90
25346;DHT22;13300;51.032;3.710;2022-11-21T08:05:16;6.30;99.90
25346;DHT22;13300;51.032;3.710;2022-11-21T08:07:41;6.40;99.90
25346;DHT22;13300;51.032;3.710;2022-11-21T08:10:07;6.40;99.90
25346;DHT22;13300;51.032;3.710;2022-11-21T08:12:32;6.40;99.90
25346;DHT22;13300;51.032;3.710;2022-11-21T08:14:58;6.60;99.90
25346;DHT22;13300;51.032;3.710;2022-11-21T08:17:30;6.60;99.90
25346;DHT22;13300;51.032;3.710;2022-11-21T08:19:55;6.90;99.90
25346;DHT22;13300;51.032;3.710;2022-11-21T08:22:23;7.20;99.90
25346;DHT22;13300;51.032;3.710;2022-11-21T08:24:48;7.30;99.90
25346;DHT22;13300;51.032;3.710;2022-11-21T08:27:14;7.40;99.90
25346;DHT22;13300;51.032;3.710;2022-11-21T08:29:44;7.50;99.90
25346;DHT22;13300;51.032;3.710;2022-11-21T08:32:10;7.70;99.90
25346;DHT22;13300;51.032;3.710;2022-11-21T08:34:36;7.90;99.90
25346;DHT22;13300;51.032;3.710;2022-11-21T08:37:01;8.20;99.90
25346;DHT22;13300;51.032;3.710;2022-11-21T08:39:27;8.30;99.90
25346;DHT22;13300;51.032;3.710;2022-11-21T08:41:55;8.40;99.90
25346;DHT22;13300;51.032;3.710;2022-11-21T08:44:33;8.70;99.90
25346;DHT22;13300;51.032;3.710;2022-11-21T08:46:59;8.50;99.90
25346;DHT22;13300;51.032;3.710;2022-11-21T08:49:25;8.70;99.90
25346;DHT22;13300;51.032;3.710;2022-11-21T08:51:51;8.40;99.90
25346;DHT22;13300;51.032;3.710;2022-11-21T08:54:21;8.70;99.90
25346;DHT22;13300;51.032;3.710;2022-11-21T08:56:47;9.00;99.90
25346;DHT22;13300;51.032;3.710;2022-11-21T08:59:13;9.30;99.90
25346;DHT22;13300;51.032;3.710;2022-11-21T09:01:39;9.00;99.90
25346;DHT22;13300;51.032;3.710;2022-11-21T09:04:04;8.90;99.90
25346;DHT22;13300;51.032;3.710;2022-11-21T09:06:30;8.80;99.90
25346;DHT22;13300;51.032;3.710;2022-11-21T09:08:56;8.70;99.90
25346;DHT22;13300;51.032;3.710;2022-11-21T09:11:21;8.60;99.90
25346;DHT22;13300;51.032;3.710;2022-11-21T09:13:49;8.70;99.90
25346;DHT22;13300;51.032;3.710;2022-11-21T09:16:35;8.80;99.90
25346;DHT22;13300;51.032;3.710;2022-11-21T09:19:19;8.80;99.90
25346;DHT22;13300;51.032;3.710;2022-11-21T09:21:47;8.50;99.90
25346;DHT22;13300;51.032;3.710;2022-11-21T09:24:13;8.60;99.90
25346;DHT22;13300;51.032;3.710;2022-11-21T09:26:38;9.00;99.90
25346;DHT22;13300;51.032;3.710;2022-11-21T09:29:04;9.60;99.90
25346;DHT22;13300;51.032;3.710;2022-11-21T09:31:30;9.60;99.90
25346;DHT22;13300;51.032;3.710;2022-11-21T09:33:55;9.90;99.90
25346;DHT22;13300;51.032;3.710;2022-11-21T09:36:21;10.20;99.90
25346;DHT22;13300;51.032;3.710;2022-11-21T09:38:46;10.60;99.90
25346;DHT22;13300;51.032;3.710;2022-11-21T09:46:28;9.10;99.90
25346;DHT22;13300;51.032;3.710;2022-11-21T09:48:57;8.80;99.90
25346;DHT22;13300;51.032;3.710;2022-11-21T09:51:25;8.90;99.90
25346;DHT22;13300;51.032;3.710;2022-11-21T09:56:23;9.00;99.90
25346;DHT22;13300;51.032;3.710;2022-11-21T10:01:22;8.50;99.90
25346;DHT22;13300;51.032;3.710;2022-11-21T10:03:48;8.50;99.90
25346;DHT22;13300;51.032;3.710;2022-11-21T10:06:18;8.40;99.90
25346;DHT22;13300;51.032;3.710;2022-11-21T10:11:17;8.40;99.90
25346;DHT22;13300;51.032;3.710;2022-11-21T10:16:43;8.30;99.90
25346;DHT22;13300;51.032;3.710;2022-11-21T10:19:13;8.30;99.90
25346;DHT22;13300;51.032;3.710;2022-11-21T10:22:05;8.20;99.90
25346;DHT22;13300;51.032;3.710;2022-11-21T10:24:39;8.20;99.90
25346;DHT22;13300;51.032;3.710;2022-11-21T10:27:12;8.50;99.90
25346;DHT22;13300;51.032;3.710;2022-11-21T10:32:24;8.80;99.90
25346;DHT22;13300;51.032;3.710;2022-11-21T10:34:52;8.90;99.90
25346;DHT22;13300;51.032;3.710;2022-11-21T10:39:51;8.60;99.90
25346;DHT22;13300;51.032;3.710;2022-11-21T10:42:28;8.50;99.90
25346;DHT22;13300;51.032;3.710;2022-11-21T10:44:57;8.60;99.90
25346;DHT22;13300;51.032;3.710;2022-11-21T10:47:47;8.90;99.90
25346;DHT22;13300;51.032;3.710;2022-11-21T10:53:04;9.00;99.90
25346;DHT22;13300;51.032;3.710;2022-11-21T10:55:55;8.80;99.90
25346;DHT22;13300;51.032;3.710;2022-11-21T10:58:27;8.40;99.90
25346;DHT22;13300;51.032;3.710;2022-11-21T11:00:57;8.30;99.90
25346;DHT22;13300;51.032;3.710;2022-11-21T11:03:23;8.30;99.90
25346;DHT22;13300;51.032;3.710;2022-11-21T11:05:54;8.30;99.90
25346;DHT22;13300;51.032;3.710;2022-11-21T11:08:21;8.40;99.90
25346;DHT22;13300;51.032;3.710;2022-11-21T11:11:01;8.50;99.90
25346;DHT22;13300;51.032;3.710;2022-11-21T11:13:26;8.40;99.90
25346;DHT22;13300;51.032;3.710;2022-11-21T11:16:09;8.30;99.90
25346;DHT22;13300;51.032;3.710;2022-11-21T11:21:43;8.10;99.90
25346;DHT22;13300;51.032;3.710;2022-11-21T11:29:13;8.10;99.90
25346;DHT22;13300;51.032;3.710;2022-11-21T11:34:11;8.20;99.90
25346;DHT22;13300;51.032;3.710;2022-11-21T11:36:48;8.30;99.90
25346;DHT22;13300;51.032;3.710;2022-11-21T11:45:04;8.30;99.90
25346;DHT22;13300;51.032;3.710;2022-11-21T11:47:53;8.20;99.90
25346;DHT22;13300;51.032;3.710;2022-11-21T11:50:21;8.00;99.90
25346;DHT22;13300;51.032;3.710;2022-11-21T11:52:51;8.10;99.90
25346;DHT22;13300;51.032;3.710;2022-11-21T11:55:22;8.20;99.90
25346;DHT22;13300;51.032;3.710;2022-11-21T11:57:49;8.10;99.90
25346;DHT22;13300;51.032;3.710;2022-11-21T12:03:34;8.20;99.90
25346;DHT22;13300;51.032;3.710;2022-11-21T12:05:38;8.30;99.90
25346;DHT22;13300;51.032;3.710;2022-11-21T12:08:13;8.50;99.90
25346;DHT22;13300;51.032;3.710;2022-11-21T12:10:43;8.50;99.90
25346;DHT22;13300;51.032;3.710;2022-11-21T12:13:30;8.40;99.90
25346;DHT22;13300;51.032;3.710;2022-11-21T12:15:56;8.40;99.90
25346;DHT22;13300;51.032;3.710;2022-11-21T12:18:35;8.50;99.90
25346;DHT22;13300;51.032;3.710;2022-11-21T12:21:12;8.70;99.90
25346;DHT22;13300;51.032;3.710;2022-11-21T12:37:08;8.60;99.90
25346;DHT22;13300;51.032;3.710;2022-11-21T12:42:17;8.90;99.90
25346;DHT22;13300;51.032;3.710;2022-11-21T12:56:36;9.00;99.90
25346;DHT22;13300;51.032;3.710;2022-11-21T12:59:04;9.00;99.90
25346;DHT22;13300;51.032;3.710;2022-11-21T13:04:04;8.90;99.90
25346;DHT22;13300;51.032;3.710;2022-11-21T13:06:33;8.90;99.90
25346;DHT22;13300;51.032;3.710;2022-11-21T13:09:00;8.90;99.90
25346;DHT22;13300;51.032;3.710;2022-11-21T13:14:34;8.90;99.90
25346;DHT22;13300;51.032;3.710;2022-11-21T13:24:59;9.10;99.90
25346;DHT22;13300;51.032;3.710;2022-11-21T13:27:26;9.20;99.90
25346;DHT22;13300;51.032;3.710;2022-11-21T13:32:45;9.40;99.90
25346;DHT22;13300;51.032;3.710;2022-11-21T13:35:56;9.30;99.90
25346;DHT22;13300;51.032;3.710;2022-11-21T13:38:00;9.20;99.90
25346;DHT22;13300;51.032;3.710;2022-11-21T13:45:37;9.60;99.90
25346;DHT22;13300;51.032;3.710;2022-11-21T13:53:27;9.40;99.90
25346;DHT22;13300;51.032;3.710;2022-11-21T13:55:58;9.50;99.90
25346;DHT22;13300;51.032;3.710;2022-11-21T14:03:27;9.50;99.90
25346;DHT22;13300;51.032;3.710;2022-11-21T14:08:37;9.80;99.90
25346;DHT22;13300;51.032;3.710;2022-11-21T14:11:19;9.80;99.90
25346;DHT22;13300;51.032;3.710;2022-11-21T14:13:45;9.70;99.90
25346;DHT22;13300;51.032;3.710;2022-11-21T14:18:44;9.50;99.90
25346;DHT22;13300;51.032;3.710;2022-11-21T14:21:20;9.40;99.90
25346;DHT22;13300;51.032;3.710;2022-11-21T14:23:47;9.50;99.90
25346;DHT22;13300;51.032;3.710;2022-11-21T14:26:13;9.40;99.90
25346;DHT22;13300;51.032;3.710;2022-11-21T14:28:41;9.40;99.90
25346;DHT22;13300;51.032;3.710;2022-11-21T14:31:08;9.30;99.90
25346;DHT22;13300;51.032;3.710;2022-11-21T14:33:35;9.20;99.90
25346;DHT22;13300;51.032;3.710;2022-11-21T14:38:28;9.20;99.90
25346;DHT22;13300;51.032;3.710;2022-11-21T14:43:38;9.40;99.90
25346;DHT22;13300;51.032;3.710;2022-11-21T14:46:03;9.40;99.90
25346;DHT22;13300;51.032;3.710;2022-11-21T14:48:29;9.30;99.90
25346;DHT22;13300;51.032;3.710;2022-11-21T14:50:55;9.20;99.90
25346;DHT22;13300;51.032;3.710;2022-11-21T14:53:22;9.30;99.90
25346;DHT22;13300;51.032;3.710;2022-11-21T14:55:48;9.30;99.90
25346;DHT22;13300;51.032;3.710;2022-11-21T14:58:15;9.20;99.90
25346;DHT22;13300;51.032;3.710;2022-11-21T15:00:41;9.20;99.90
25346;DHT22;13300;51.032;3.710;2022-11-21T15:03:25;9.20;99.90
25346;DHT22;13300;51.032;3.710;2022-11-21T15:05:57;9.20;99.90
25346;DHT22;13300;51.032;3.710;2022-11-21T15:08:23;9.20;99.90
25346;DHT22;13300;51.032;3.710;2022-11-21T15:10:48;9.30;99.90
25346;DHT22;13300;51.032;3.710;2022-11-21T15:13:14;9.20;99.90
25346;DHT22;13300;51.032;3.710;2022-11-21T15:15:41;9.10;99.90
25346;DHT22;13300;51.032;3.710;2022-11-21T15:18:12;9.20;99.90
25346;DHT22;13300;51.032;3.710;2022-11-21T15:20:38;9.20;99.90
25346;DHT22;13300;51.032;3.710;2022-11-21T15:23:03;9.20;99.90
25346;DHT22;13300;51.032;3.710;2022-11-21T15:25:43;9.30;99.90
25346;DHT22;13300;51.032;3.710;2022-11-21T15:28:13;9.20;99.90
25346;DHT22;13300;51.032;3.710;2022-11-21T15:30:39;9.10;99.90
25346;DHT22;13300;51.032;3.710;2022-11-21T15:40:37;8.90;99.90
25346;DHT22;13300;51.032;3.710;2022-11-21T15:43:02;8.90;99.90
25346;DHT22;13300;51.032;3.710;2022-11-21T15:45:28;8.70;99.90
25346;DHT22;13300;51.032;3.710;2022-11-21T15:47:54;8.70;99.90
25346;DHT22;13300;51.032;3.710;2022-11-21T15:50:21;8.70;99.90
25346;DHT22;13300;51.032;3.710;2022-11-21T15:52:48;8.80;99.90
25346;DHT22;13300;51.032;3.710;2022-11-21T15:55:21;8.80;99.90
25346;DHT22;13300;51.032;3.710;2022-11-21T15:57:48;8.70;99.90
25346;DHT22;13300;51.032;3.710;2022-11-21T16:00:14;8.70;99.90
25346;DHT22;13300;51.032;3.710;2022-11-21T16:02:41;8.60;99.90
25346;DHT22;13300;51.032;3.710;2022-11-21T16:05:09;8.70;99.90
25346;DHT22;13300;51.032;3.710;2022-11-21T16:07:35;8.70;99.90
25346;DHT22;13300;51.032;3.710;2022-11-21T16:10:01;8.60;99.90
25346;DHT22;13300;51.032;3.710;2022-11-21T16:12:26;8.60;99.90
25346;DHT22;13300;51.032;3.710;2022-11-21T16:14:52;8.60;99.90
25346;DHT22;13300;51.032;3.710;2022-11-21T16:17:20;8.60;99.90
25346;DHT22;13300;51.032;3.710;2022-11-21T16:19:46;8.50;99.90
25346;DHT22;13300;51.032;3.710;2022-11-21T16:22:11;8.50;99.90
25346;DHT22;13300;51.032;3.710;2022-11-21T16:24:37;8.50;99.90
25346;DHT22;13300;51.032;3.710;2022-11-21T16:27:03;8.50;99.90
25346;DHT22;13300;51.032;3.710;2022-11-21T16:29:28;8.40;99.90
25346;DHT22;13300;51.032;3.710;2022-11-21T16:31:54;8.50;99.90
25346;DHT22;13300;51.032;3.710;2022-11-21T16:34:20;8.40;99.90
25346;DHT22;13300;51.032;3.710;2022-11-21T16:36:46;8.40;99.90
25346;DHT22;13300;51.032;3.710;2022-11-21T16:39:12;8.40;99.90
25346;DHT22;13300;51.032;3.710;2022-11-21T16:41:38;8.40;99.90
25346;DHT22;13300;51.032;3.710;2022-11-21T16:44:09;8.50;99.90
25346;DHT22;13300;51.032;3.710;2022-11-21T16:46:36;8.50;99.90
25346;DHT22;13300;51.032;3.710;2022-11-21T16:49:05;8.50;99.90
25346;DHT22;13300;51.032;3.710;2022-11-21T16:51:31;8.60;99.90
25346;DHT22;13300;51.032;3.710;2022-11-21T16:53:56;8.50;99.90
25346;DHT22;13300;51.032;3.710;2022-11-21T16:56:22;8.50;99.90
25346;DHT22;13300;51.032;3.710;2022-11-21T16:58:48;8.40;99.90
25346;DHT22;13300;51.032;3.710;2022-11-21T17:01:23;8.30;99.90
25346;DHT22;13300;51.032;3.710;2022-11-21T17:03:49;8.30;99.90
25346;DHT22;13300;51.032;3.710;2022-11-21T17:06:15;8.40;99.90
25346;DHT22;13300;51.032;3.710;2022-11-21T17:08:41;8.50;99.90
25346;DHT22;13300;51.032;3.710;2022-11-21T17:13:35;8.40;99.90
25346;DHT22;13300;51.032;3.710;2022-11-21T17:16:05;8.40;99.90
25346;DHT22;13300;51.032;3.710;2022-11-21T17:18:31;8.30;99.90
25346;DHT22;13300;51.032;3.710;2022-11-21T17:20:56;8.30;99.90
25346;DHT22;13300;51.032;3.710;2022-11-21T17:23:22;8.30;99.90
25346;DHT22;13300;51.032;3.710;2022-11-21T17:25:47;8.30;99.90
25346;DHT22;13300;51.032;3.710;2022-11-21T17:28:13;8.20;99.90
25346;DHT22;13300;51.032;3.710;2022-11-21T17:30:39;8.10;99.90
25346;DHT22;13300;51.032;3.710;2022-11-21T17:33:08;8.10;99.90
25346;DHT22;13300;51.032;3.710;2022-11-21T17:35:34;8.10;99.90
25346;DHT22;13300;51.032;3.710;2022-11-21T17:37:59;7.90;99.90
25346;DHT22;13300;51.032;3.710;2022-11-21T17:40:25;8.00;99.90
25346;DHT22;13300;51.032;3.710;2022-11-21T17:42:50;8.10;99.90
25346;DHT22;13300;51.032;3.710;2022-11-21T17:45:16;8.00;99.90
25346;DHT22;13300;51.032;3.710;2022-11-21T17:47:41;8.00;99.90
25346;DHT22;13300;51.032;3.710;2022-11-21T17:50:08;8.00;99.90
25346;DHT22;13300;51.032;3.710;2022-11-21T17:52:34;8.00;99.90
25346;DHT22;13300;51.032;3.710;2022-11-21T17:54:59;8.10;99.90
25346;DHT22;13300;51.032;3.710;2022-11-21T17:57:25;8.10;99.90
25346;DHT22;13300;51.032;3.710;2022-11-21T17:59:50;8.10;99.90